Colchester, United Kingdom
Current Conditions -  °F | °C
As of 9:27 AM on Friday 24 Oct 2014 (Local Time) from EGUW Reporting Station
Light Rain Light Rain  
Wind Chill: 14°   Ceiling: 1200
Heat Index: 14°   Visibility: 6mi
Dew Point: 13°   Wind: 8mph
Humidity: 94%   Direction: 210°SSW
Pressure: 29.97"   Gusts: NA
Location:  51.89°N, 0.9°E
Report Text: EGUW 240827Z 21007KT 9999 -RA FEW004 BKN012 14/13 Q1015 GRN TEMPO SCT006 YLO1
Loading
Personal Weather Stations






























Interactive Weather Map
Tropical Storm Tracking
New forecast layout! Learn more

10-Day Weather Forecast

Advertisements
Track Severe Weather on mobile